sensor_id;sensor_type;location;lat;lon;timestamp;pressure;altitude;pressure_sealevel;temperature;humidity
7660;BME280;3872;47.902;8.162;2023-12-22T00:01:42;90957.25;;;8.36;100.00
7660;BME280;3872;47.902;8.162;2023-12-22T00:04:09;90964.59;;;7.36;100.00
7660;BME280;3872;47.902;8.162;2023-12-22T00:06:36;90976.00;;;7.04;100.00
7660;BME280;3872;47.902;8.162;2023-12-22T00:09:03;90978.38;;;7.86;100.00
7660;BME280;3872;47.902;8.162;2023-12-22T00:11:30;90988.28;;;7.53;100.00
7660;BME280;3872;47.902;8.162;2023-12-22T00:13:56;90992.34;;;8.04;100.00
7660;BME280;3872;47.902;8.162;2023-12-22T00:16:23;90994.09;;;7.86;100.00
7660;BME280;3872;47.902;8.162;2023-12-22T00:18:49;90995.38;;;7.53;100.00
7660;BME280;3872;47.902;8.162;2023-12-22T00:21:16;90995.41;;;7.03;100.00
7660;BME280;3872;47.902;8.162;2023-12-22T00:23:43;90981.81;;;7.51;100.00
7660;BME280;3872;47.902;8.162;2023-12-22T00:26:10;90986.03;;;7.60;100.00
7660;BME280;3872;47.902;8.162;2023-12-22T00:28:36;90978.72;;;7.93;100.00
7660;BME280;3872;47.902;8.162;2023-12-22T00:31:03;90973.56;;;7.79;100.00
7660;BME280;3872;47.902;8.162;2023-12-22T00:33:30;90975.03;;;7.50;100.00
7660;BME280;3872;47.902;8.162;2023-12-22T00:35:57;90978.56;;;8.20;100.00
7660;BME280;3872;47.902;8.162;2023-12-22T00:38:24;90986.00;;;7.74;100.00
7660;BME280;3872;47.902;8.162;2023-12-22T00:40:52;90986.03;;;7.60;100.00
7660;BME280;3872;47.902;8.162;2023-12-22T00:43:18;90985.44;;;8.70;100.00
7660;BME280;3872;47.902;8.162;2023-12-22T00:45:45;91002.22;;;8.07;100.00
7660;BME280;3872;47.902;8.162;2023-12-22T00:48:11;91009.03;;;7.14;100.00
7660;BME280;3872;47.902;8.162;2023-12-22T00:50:38;91004.56;;;7.86;100.00
7660;BME280;3872;47.902;8.162;2023-12-22T00:53:04;90999.19;;;7.69;100.00
7660;BME280;3872;47.902;8.162;2023-12-22T00:55:31;91003.38;;;8.37;100.00
7660;BME280;3872;47.902;8.162;2023-12-22T00:57:59;91011.81;;;7.89;100.00
7660;BME280;3872;47.902;8.162;2023-12-22T01:00:25;91012.22;;;8.49;100.00
7660;BME280;3872;47.902;8.162;2023-12-22T01:02:52;91009.38;;;7.93;100.00
7660;BME280;3872;47.902;8.162;2023-12-22T01:05:18;90999.41;;;7.36;100.00
7660;BME280;3872;47.902;8.162;2023-12-22T01:07:46;91016.94;;;7.36;100.00
7660;BME280;3872;47.902;8.162;2023-12-22T01:10:12;91008.09;;;7.68;100.00
7660;BME280;3872;47.902;8.162;2023-12-22T01:12:39;91036.13;;;7.81;100.00
7660;BME280;3872;47.902;8.162;2023-12-22T01:15:07;91022.41;;;6.98;100.00
7660;BME280;3872;47.902;8.162;2023-12-22T01:17:34;91024.75;;;7.00;100.00
7660;BME280;3872;47.902;8.162;2023-12-22T01:20:01;91027.47;;;6.95;100.00
7660;BME280;3872;47.902;8.162;2023-12-22T01:22:27;91007.41;;;7.76;100.00
7660;BME280;3872;47.902;8.162;2023-12-22T01:24:56;91018.75;;;6.86;100.00
7660;BME280;3872;47.902;8.162;2023-12-22T01:27:22;91012.94;;;7.52;100.00
7660;BME280;3872;47.902;8.162;2023-12-22T01:29:49;91015.41;;;8.38;100.00
7660;BME280;3872;47.902;8.162;2023-12-22T01:32:17;91015.16;;;7.81;100.00
7660;BME280;3872;47.902;8.162;2023-12-22T01:34:44;91030.72;;;7.28;100.00
7660;BME280;3872;47.902;8.162;2023-12-22T01:37:11;91030.09;;;6.81;100.00
7660;BME280;3872;47.902;8.162;2023-12-22T01:39:38;91023.72;;;7.37;100.00
7660;BME280;3872;47.902;8.162;2023-12-22T01:42:04;91016.09;;;8.07;100.00
7660;BME280;3872;47.902;8.162;2023-12-22T01:44:31;91013.41;;;7.76;100.00
7660;BME280;3872;47.902;8.162;2023-12-22T01:46:57;91026.88;;;7.47;100.00
7660;BME280;3872;47.902;8.162;2023-12-22T01:49:26;91018.88;;;7.44;100.00
7660;BME280;3872;47.902;8.162;2023-12-22T01:51:54;91016.34;;;7.97;100.00
7660;BME280;3872;47.902;8.162;2023-12-22T01:54:21;91034.00;;;7.69;100.00
7660;BME280;3872;47.902;8.162;2023-12-22T01:56:48;91042.66;;;7.92;100.00
7660;BME280;3872;47.902;8.162;2023-12-22T01:59:15;91058.47;;;7.01;100.00
7660;BME280;3872;47.902;8.162;2023-12-22T02:01:42;91060.38;;;7.37;100.00
7660;BME280;3872;47.902;8.162;2023-12-22T02:04:11;91081.09;;;6.19;100.00
7660;BME280;3872;47.902;8.162;2023-12-22T02:06:40;91061.22;;;6.37;100.00
7660;BME280;3872;47.902;8.162;2023-12-22T02:09:07;91063.38;;;6.76;100.00
7660;BME280;3872;47.902;8.162;2023-12-22T02:11:34;91077.22;;;6.62;100.00
7660;BME280;3872;47.902;8.162;2023-12-22T02:14:01;91072.28;;;6.61;100.00
7660;BME280;3872;47.902;8.162;2023-12-22T02:16:32;91077.81;;;6.59;100.00
7660;BME280;3872;47.902;8.162;2023-12-22T02:19:11;91041.03;;;6.83;100.00
7660;BME280;3872;47.902;8.162;2023-12-22T02:22:02;91037.16;;;6.81;100.00
7660;BME280;3872;47.902;8.162;2023-12-22T02:24:30;91043.06;;;6.73;100.00
7660;BME280;3872;47.902;8.162;2023-12-22T02:27:03;91018.63;;;7.04;100.00
7660;BME280;3872;47.902;8.162;2023-12-22T02:29:32;91011.19;;;6.84;100.00
7660;BME280;3872;47.902;8.162;2023-12-22T02:32:02;91005.22;;;7.33;100.00
7660;BME280;3872;47.902;8.162;2023-12-22T02:34:35;91026.09;;;6.97;100.00
7660;BME280;3872;47.902;8.162;2023-12-22T02:37:04;91040.63;;;6.90;100.00
7660;BME280;3872;47.902;8.162;2023-12-22T02:39:33;91027.09;;;6.60;100.00
7660;BME280;3872;47.902;8.162;2023-12-22T02:42:00;91037.19;;;6.35;100.00
7660;BME280;3872;47.902;8.162;2023-12-22T02:44:27;91031.22;;;6.61;100.00
7660;BME280;3872;47.902;8.162;2023-12-22T02:46:53;91044.81;;;8.12;100.00
7660;BME280;3872;47.902;8.162;2023-12-22T02:49:20;91061.25;;;6.50;100.00
7660;BME280;3872;47.902;8.162;2023-12-22T02:51:46;91095.88;;;6.10;100.00
7660;BME280;3872;47.902;8.162;2023-12-22T02:54:13;91097.78;;;6.04;100.00
7660;BME280;3872;47.902;8.162;2023-12-22T02:56:41;91082.84;;;6.69;100.00
7660;BME280;3872;47.902;8.162;2023-12-22T02:59:08;91094.94;;;5.63;100.00
7660;BME280;3872;47.902;8.162;2023-12-22T03:01:34;91100.66;;;5.84;100.00
7660;BME280;3872;47.902;8.162;2023-12-22T03:04:01;91086.91;;;6.16;100.00
7660;BME280;3872;47.902;8.162;2023-12-22T03:06:27;91078.09;;;6.58;100.00
7660;BME280;3872;47.902;8.162;2023-12-22T03:08:54;91071.56;;;6.42;100.00
7660;BME280;3872;47.902;8.162;2023-12-22T03:11:20;91065.66;;;6.36;100.00
7660;BME280;3872;47.902;8.162;2023-12-22T03:13:48;91058.94;;;6.90;100.00
7660;BME280;3872;47.902;8.162;2023-12-22T03:16:15;91061.72;;;6.52;100.00
7660;BME280;3872;47.902;8.162;2023-12-22T03:18:41;91055.53;;;6.89;100.00
7660;BME280;3872;47.902;8.162;2023-12-22T03:21:16;91058.53;;;6.69;100.00
7660;BME280;3872;47.902;8.162;2023-12-22T03:23:42;91063.63;;;6.33;100.00
7660;BME280;3872;47.902;8.162;2023-12-22T03:26:09;91066.03;;;7.03;100.00
7660;BME280;3872;47.902;8.162;2023-12-22T03:28:35;91068.13;;;6.46;100.00
7660;BME280;3872;47.902;8.162;2023-12-22T03:31:04;91062.53;;;7.07;100.00
7660;BME280;3872;47.902;8.162;2023-12-22T03:33:32;91050.25;;;7.58;100.00
7660;BME280;3872;47.902;8.162;2023-12-22T03:35:58;91049.91;;;8.17;100.00
7660;BME280;3872;47.902;8.162;2023-12-22T03:38:25;91063.09;;;8.48;100.00
7660;BME280;3872;47.902;8.162;2023-12-22T03:40:51;91065.44;;;8.81;100.00
7660;BME280;3872;47.902;8.162;2023-12-22T03:43:18;91066.28;;;7.29;100.00
7660;BME280;3872;47.902;8.162;2023-12-22T03:45:45;91067.94;;;7.11;100.00
7660;BME280;3872;47.902;8.162;2023-12-22T03:48:12;91076.34;;;7.85;100.00
7660;BME280;3872;47.902;8.162;2023-12-22T03:50:39;91070.28;;;6.99;100.00
7660;BME280;3872;47.902;8.162;2023-12-22T03:53:05;91073.50;;;6.96;100.00
7660;BME280;3872;47.902;8.162;2023-12-22T03:55:32;91062.78;;;6.38;100.00
7660;BME280;3872;47.902;8.162;2023-12-22T03:57:58;91054.88;;;6.84;100.00
7660;BME280;3872;47.902;8.162;2023-12-22T04:00:25;91066.09;;;7.25;100.00
7660;BME280;3872;47.902;8.162;2023-12-22T04:02:51;91102.53;;;6.67;100.00
7660;BME280;3872;47.902;8.162;2023-12-22T04:05:19;91085.47;;;6.69;100.00
7660;BME280;3872;47.902;8.162;2023-12-22T04:07:46;91057.81;;;6.36;100.00
7660;BME280;3872;47.902;8.162;2023-12-22T04:10:13;91054.78;;;7.16;100.00
7660;BME280;3872;47.902;8.162;2023-12-22T04:12:42;91062.38;;;7.40;100.00
7660;BME280;3872;47.902;8.162;2023-12-22T04:15:09;91064.09;;;7.08;100.00
7660;BME280;3872;47.902;8.162;2023-12-22T04:17:35;91073.38;;;7.15;100.00
7660;BME280;3872;47.902;8.162;2023-12-22T04:20:02;91102.28;;;6.50;100.00
7660;BME280;3872;47.902;8.162;2023-12-22T04:22:30;91102.91;;;6.28;100.00
7660;BME280;3872;47.902;8.162;2023-12-22T04:24:57;91093.88;;;6.53;100.00
7660;BME280;3872;47.902;8.162;2023-12-22T04:27:23;91103.09;;;6.78;100.00
7660;BME280;3872;47.902;8.162;2023-12-22T04:29:50;91100.81;;;6.44;100.00
7660;BME280;3872;47.902;8.162;2023-12-22T04:32:17;91122.19;;;6.13;100.00
7660;BME280;3872;47.902;8.162;2023-12-22T04:34:43;91121.63;;;5.98;100.00
7660;BME280;3872;47.902;8.162;2023-12-22T04:37:10;91132.44;;;6.10;100.00
7660;BME280;3872;47.902;8.162;2023-12-22T04:39:38;91121.53;;;5.89;100.00
7660;BME280;3872;47.902;8.162;2023-12-22T04:42:04;91118.66;;;6.55;100.00
7660;BME280;3872;47.902;8.162;2023-12-22T04:44:31;91108.31;;;6.64;100.00
7660;BME280;3872;47.902;8.162;2023-12-22T04:46:58;91112.38;;;6.24;100.00
7660;BME280;3872;47.902;8.162;2023-12-22T04:49:24;91112.25;;;6.61;100.00
7660;BME280;3872;47.902;8.162;2023-12-22T04:51:51;91101.09;;;6.75;100.00
7660;BME280;3872;47.902;8.162;2023-12-22T04:54:18;91089.47;;;7.08;100.00
7660;BME280;3872;47.902;8.162;2023-12-22T04:56:45;91084.19;;;5.88;100.00
7660;BME280;3872;47.902;8.162;2023-12-22T04:59:12;91100.75;;;6.16;100.00
7660;BME280;3872;47.902;8.162;2023-12-22T05:01:38;91102.59;;;5.60;100.00
7660;BME280;3872;47.902;8.162;2023-12-22T05:04:05;91103.22;;;6.08;100.00
7660;BME280;3872;47.902;8.162;2023-12-22T05:06:31;91093.84;;;6.39;100.00
7660;BME280;3872;47.902;8.162;2023-12-22T05:08:58;91090.41;;;7.39;100.00
7660;BME280;3872;47.902;8.162;2023-12-22T05:11:24;91082.66;;;6.66;100.00
7660;BME280;3872;47.902;8.162;2023-12-22T05:13:52;91100.72;;;6.49;100.00
7660;BME280;3872;47.902;8.162;2023-12-22T05:16:19;91078.59;;;7.15;100.00
7660;BME280;3872;47.902;8.162;2023-12-22T05:18:46;91099.78;;;6.26;100.00
7660;BME280;3872;47.902;8.162;2023-12-22T05:21:12;91086.53;;;6.68;100.00
7660;BME280;3872;47.902;8.162;2023-12-22T05:23:40;91093.16;;;6.93;100.00
7660;BME280;3872;47.902;8.162;2023-12-22T05:26:07;91112.50;;;6.92;100.00
7660;BME280;3872;47.902;8.162;2023-12-22T05:28:33;91115.34;;;6.17;100.00
7660;BME280;3872;47.902;8.162;2023-12-22T05:31:01;91112.97;;;6.02;100.00
7660;BME280;3872;47.902;8.162;2023-12-22T05:33:27;91103.97;;;6.59;100.00
7660;BME280;3872;47.902;8.162;2023-12-22T05:35:54;91111.31;;;6.71;100.00
7660;BME280;3872;47.902;8.162;2023-12-22T05:38:20;91107.16;;;6.05;100.00
7660;BME280;3872;47.902;8.162;2023-12-22T05:40:47;91097.72;;;6.09;100.00
7660;BME280;3872;47.902;8.162;2023-12-22T05:43:13;91103.47;;;6.25;100.00
7660;BME280;3872;47.902;8.162;2023-12-22T05:45:40;91112.97;;;6.02;100.00
7660;BME280;3872;47.902;8.162;2023-12-22T05:48:08;91108.03;;;6.79;100.00
7660;BME280;3872;47.902;8.162;2023-12-22T05:50:34;91114.28;;;6.51;100.00
7660;BME280;3872;47.902;8.162;2023-12-22T05:53:01;91107.00;;;6.48;100.00
7660;BME280;3872;47.902;8.162;2023-12-22T05:55:27;91124.66;;;6.05;100.00
7660;BME280;3872;47.902;8.162;2023-12-22T05:57:54;91141.94;;;6.38;100.00
7660;BME280;3872;47.902;8.162;2023-12-22T06:00:21;91127.81;;;6.99;100.00
7660;BME280;3872;47.902;8.162;2023-12-22T06:02:47;91146.09;;;7.95;100.00
7660;BME280;3872;47.902;8.162;2023-12-22T06:05:15;91151.44;;;6.48;100.00
7660;BME280;3872;47.902;8.162;2023-12-22T06:07:42;91149.22;;;6.87;100.00
7660;BME280;3872;47.902;8.162;2023-12-22T06:10:09;91141.16;;;6.84;100.00
7660;BME280;3872;47.902;8.162;2023-12-22T06:12:35;91132.88;;;7.36;100.00
7660;BME280;3872;47.902;8.162;2023-12-22T06:15:02;91122.91;;;6.51;100.00
7660;BME280;3872;47.902;8.162;2023-12-22T06:17:29;91122.31;;;7.41;100.00
7660;BME280;3872;47.902;8.162;2023-12-22T06:19:55;91137.72;;;7.16;100.00
7660;BME280;3872;47.902;8.162;2023-12-22T06:22:23;91134.13;;;6.98;100.00
7660;BME280;3872;47.902;8.162;2023-12-22T06:24:50;91129.09;;;7.29;100.00
7660;BME280;3872;47.902;8.162;2023-12-22T06:27:16;91139.84;;;7.55;100.00
7660;BME280;3872;47.902;8.162;2023-12-22T06:29:43;91136.88;;;6.60;100.00
7660;BME280;3872;47.902;8.162;2023-12-22T06:32:10;91152.22;;;6.48;100.00
7660;BME280;3872;47.902;8.162;2023-12-22T06:34:37;91147.28;;;6.93;100.00
7660;BME280;3872;47.902;8.162;2023-12-22T06:37:03;91145.03;;;6.40;100.00
7660;BME280;3872;47.902;8.162;2023-12-22T06:39:34;91152.88;;;6.40;100.00
7660;BME280;3872;47.902;8.162;2023-12-22T06:42:00;91156.81;;;6.70;100.00
7660;BME280;3872;47.902;8.162;2023-12-22T06:44:27;91161.13;;;6.47;100.00
7660;BME280;3872;47.902;8.162;2023-12-22T06:46:55;91163.00;;;6.09;100.00
7660;BME280;3872;47.902;8.162;2023-12-22T06:49:21;91150.22;;;6.59;100.00
7660;BME280;3872;47.902;8.162;2023-12-22T06:51:48;91146.66;;;6.68;100.00
7660;BME280;3872;47.902;8.162;2023-12-22T06:54:14;91151.06;;;6.54;100.00
7660;BME280;3872;47.902;8.162;2023-12-22T06:56:42;91160.13;;;6.76;100.00
7660;BME280;3872;47.902;8.162;2023-12-22T06:59:09;91142.84;;;7.21;100.00
7660;BME280;3872;47.902;8.162;2023-12-22T07:01:37;91155.19;;;6.60;100.00
7660;BME280;3872;47.902;8.162;2023-12-22T07:04:04;91148.94;;;6.89;100.00
7660;BME280;3872;47.902;8.162;2023-12-22T07:06:32;91158.81;;;6.46;100.00
7660;BME280;3872;47.902;8.162;2023-12-22T07:09:28;91149.44;;;7.04;100.00
7660;BME280;3872;47.902;8.162;2023-12-22T07:11:56;91160.28;;;7.12;100.00
7660;BME280;3872;47.902;8.162;2023-12-22T07:14:23;91172.94;;;6.91;100.00
7660;BME280;3872;47.902;8.162;2023-12-22T07:16:50;91177.66;;;7.21;100.00
7660;BME280;3872;47.902;8.162;2023-12-22T07:19:16;91193.66;;;6.04;100.00
7660;BME280;3872;47.902;8.162;2023-12-22T07:21:43;91205.59;;;6.10;100.00
7660;BME280;3872;47.902;8.162;2023-12-22T07:24:10;91191.19;;;6.63;100.00
7660;BME280;3872;47.902;8.162;2023-12-22T07:26:36;91200.03;;;7.27;100.00
7660;BME280;3872;47.902;8.162;2023-12-22T07:29:04;91204.44;;;6.53;100.00
7660;BME280;3872;47.902;8.162;2023-12-22T07:31:30;91216.72;;;6.15;100.00
7660;BME280;3872;47.902;8.162;2023-12-22T07:33:57;91212.34;;;6.29;100.00
7660;BME280;3872;47.902;8.162;2023-12-22T07:36:23;91213.91;;;6.31;100.00
7660;BME280;3872;47.902;8.162;2023-12-22T07:38:50;91206.50;;;6.38;100.00
7660;BME280;3872;47.902;8.162;2023-12-22T07:41:17;91205.72;;;5.76;100.00
7660;BME280;3872;47.902;8.162;2023-12-22T07:43:43;91212.06;;;6.31;100.00
7660;BME280;3872;47.902;8.162;2023-12-22T07:46:17;91225.97;;;6.45;100.00
7660;BME280;3872;47.902;8.162;2023-12-22T07:48:44;91218.59;;;6.98;100.00
7660;BME280;3872;47.902;8.162;2023-12-22T07:51:11;91201.88;;;7.13;100.00
7660;BME280;3872;47.902;8.162;2023-12-22T07:53:38;91229.47;;;6.54;100.00
7660;BME280;3872;47.902;8.162;2023-12-22T07:56:05;91210.63;;;5.82;100.00
7660;BME280;3872;47.902;8.162;2023-12-22T07:58:32;91219.53;;;6.00;100.00
7660;BME280;3872;47.902;8.162;2023-12-22T08:00:59;91228.69;;;7.05;100.00
7660;BME280;3872;47.902;8.162;2023-12-22T08:03:27;91224.16;;;6.46;100.00
7660;BME280;3872;47.902;8.162;2023-12-22T08:05:54;91231.63;;;6.15;100.00
7660;BME280;3872;47.902;8.162;2023-12-22T08:08:21;91231.78;;;6.23;100.00
7660;BME280;3872;47.902;8.162;2023-12-22T08:10:47;91226.19;;;6.30;100.00
7660;BME280;3872;47.902;8.162;2023-12-22T08:13:14;91225.66;;;6.98;100.00
7660;BME280;3872;47.902;8.162;2023-12-22T08:15:43;91236.06;;;6.33;100.00
7660;BME280;3872;47.902;8.162;2023-12-22T08:18:09;91235.56;;;6.12;100.00
7660;BME280;3872;47.902;8.162;2023-12-22T08:20:37;91233.41;;;7.49;100.00
7660;BME280;3872;47.902;8.162;2023-12-22T08:23:04;91232.50;;;6.61;100.00
7660;BME280;3872;47.902;8.162;2023-12-22T08:25:30;91216.72;;;7.31;100.00
7660;BME280;3872;47.902;8.162;2023-12-22T08:27:57;91234.72;;;6.73;100.00
7660;BME280;3872;47.902;8.162;2023-12-22T08:30:23;91224.63;;;6.66;100.00
7660;BME280;3872;47.902;8.162;2023-12-22T08:32:50;91222.59;;;6.77;100.00
7660;BME280;3872;47.902;8.162;2023-12-22T08:35:17;91224.03;;;6.69;100.00
7660;BME280;3872;47.902;8.162;2023-12-22T08:37:45;91223.94;;;7.07;100.00
7660;BME280;3872;47.902;8.162;2023-12-22T08:40:11;91235.31;;;7.16;100.00
7660;BME280;3872;47.902;8.162;2023-12-22T08:42:38;91224.44;;;6.44;100.00
7660;BME280;3872;47.902;8.162;2023-12-22T08:45:06;91239.88;;;6.59;100.00
7660;BME280;3872;47.902;8.162;2023-12-22T08:47:32;91233.78;;;7.29;100.00
7660;BME280;3872;47.902;8.162;2023-12-22T08:49:59;91236.56;;;7.19;100.00
7660;BME280;3872;47.902;8.162;2023-12-22T08:52:29;91243.47;;;6.26;100.00
7660;BME280;3872;47.902;8.162;2023-12-22T08:54:56;91231.06;;;6.88;100.00
7660;BME280;3872;47.902;8.162;2023-12-22T08:57:23;91230.56;;;6.86;100.00
7660;BME280;3872;47.902;8.162;2023-12-22T08:59:50;91242.31;;;6.37;100.00
7660;BME280;3872;47.902;8.162;2023-12-22T09:02:16;91237.84;;;6.19;100.00
7660;BME280;3872;47.902;8.162;2023-12-22T09:04:43;91241.03;;;6.53;100.00
7660;BME280;3872;47.902;8.162;2023-12-22T09:07:09;91271.56;;;6.90;100.00
7660;BME280;3872;47.902;8.162;2023-12-22T09:09:36;91257.13;;;6.23;100.00
7660;BME280;3872;47.902;8.162;2023-12-22T09:12:04;91247.41;;;7.12;100.00
7660;BME280;3872;47.902;8.162;2023-12-22T09:14:31;91266.69;;;7.02;100.00
7660;BME280;3872;47.902;8.162;2023-12-22T09:16:57;91274.31;;;6.05;100.00
7660;BME280;3872;47.902;8.162;2023-12-22T09:19:24;91283.50;;;6.03;100.00
7660;BME280;3872;47.902;8.162;2023-12-22T09:21:51;91286.22;;;7.05;100.00
7660;BME280;3872;47.902;8.162;2023-12-22T09:24:18;91278.72;;;6.47;100.00
7660;BME280;3872;47.902;8.162;2023-12-22T09:26:44;91270.78;;;6.39;100.00
7660;BME280;3872;47.902;8.162;2023-12-22T09:29:12;91274.50;;;6.51;100.00
7660;BME280;3872;47.902;8.162;2023-12-22T09:31:39;91264.19;;;7.25;100.00
7660;BME280;3872;47.902;8.162;2023-12-22T09:34:06;91266.25;;;6.95;100.00
7660;BME280;3872;47.902;8.162;2023-12-22T09:36:33;91250.41;;;7.79;100.00
7660;BME280;3872;47.902;8.162;2023-12-22T09:38:59;91259.16;;;7.28;100.00
7660;BME280;3872;47.902;8.162;2023-12-22T09:41:26;91250.47;;;7.00;100.00
7660;BME280;3872;47.902;8.162;2023-12-22T09:43:55;91256.91;;;7.08;100.00
7660;BME280;3872;47.902;8.162;2023-12-22T09:46:25;91272.09;;;6.55;100.00
7660;BME280;3872;47.902;8.162;2023-12-22T09:48:52;91260.31;;;6.90;100.00
7660;BME280;3872;47.902;8.162;2023-12-22T09:51:20;91265.81;;;6.56;100.00
7660;BME280;3872;47.902;8.162;2023-12-22T09:53:47;91245.94;;;7.66;100.00
7660;BME280;3872;47.902;8.162;2023-12-22T09:56:17;91239.09;;;7.10;100.00
7660;BME280;3872;47.902;8.162;2023-12-22T09:58:45;91236.50;;;7.24;100.00
7660;BME280;3872;47.902;8.162;2023-12-22T10:01:13;91232.72;;;7.43;100.00
7660;BME280;3872;47.902;8.162;2023-12-22T10:03:42;91227.22;;;8.49;100.00
7660;BME280;3872;47.902;8.162;2023-12-22T10:06:09;91237.59;;;7.77;100.00
7660;BME280;3872;47.902;8.162;2023-12-22T10:08:36;91252.19;;;7.24;100.00
7660;BME280;3872;47.902;8.162;2023-12-22T10:11:04;91249.50;;;7.56;100.00
7660;BME280;3872;47.902;8.162;2023-12-22T10:13:33;91240.97;;;7.37;100.00
7660;BME280;3872;47.902;8.162;2023-12-22T10:16:04;91233.41;;;7.63;100.00
7660;BME280;3872;47.902;8.162;2023-12-22T10:18:32;91224.66;;;7.67;100.00
7660;BME280;3872;47.902;8.162;2023-12-22T10:21:00;91240.69;;;7.52;100.00
7660;BME280;3872;47.902;8.162;2023-12-22T10:23:27;91233.34;;;7.08;100.00
7660;BME280;3872;47.902;8.162;2023-12-22T10:25:54;91222.91;;;8.04;100.00
7660;BME280;3872;47.902;8.162;2023-12-22T10:28:23;91237.47;;;7.96;100.00
7660;BME280;3872;47.902;8.162;2023-12-22T10:30:52;91230.34;;;7.01;100.00
7660;BME280;3872;47.902;8.162;2023-12-22T10:33:21;91210.03;;;7.80;100.00
7660;BME280;3872;47.902;8.162;2023-12-22T10:35:47;91213.13;;;7.96;100.00
7660;BME280;3872;47.902;8.162;2023-12-22T10:38:18;91211.22;;;7.74;100.00
7660;BME280;3872;47.902;8.162;2023-12-22T10:40:45;91207.31;;;7.17;100.00
7660;BME280;3872;47.902;8.162;2023-12-22T10:43:12;91195.69;;;7.64;100.00
7660;BME280;3872;47.902;8.162;2023-12-22T10:45:40;91198.81;;;7.38;100.00
7660;BME280;3872;47.902;8.162;2023-12-22T10:48:07;91189.38;;;7.65;100.00
7660;BME280;3872;47.902;8.162;2023-12-22T10:50:33;91186.56;;;7.89;100.00
7660;BME280;3872;47.902;8.162;2023-12-22T10:53:00;91178.13;;;7.64;100.00
7660;BME280;3872;47.902;8.162;2023-12-22T10:55:28;91171.00;;;8.06;100.00
7660;BME280;3872;47.902;8.162;2023-12-22T10:57:54;91161.78;;;8.08;100.00
7660;BME280;3872;47.902;8.162;2023-12-22T11:00:22;91152.00;;;8.00;100.00
7660;BME280;3872;47.902;8.162;2023-12-22T11:02:50;91157.41;;;8.04;100.00
7660;BME280;3872;47.902;8.162;2023-12-22T11:05:26;91160.78;;;7.27;100.00
7660;BME280;3872;47.902;8.162;2023-12-22T11:07:55;91173.75;;;7.46;100.00
7660;BME280;3872;47.902;8.162;2023-12-22T11:10:22;91158.56;;;7.34;100.00
7660;BME280;3872;47.902;8.162;2023-12-22T11:12:51;91151.34;;;7.95;100.00
7660;BME280;3872;47.902;8.162;2023-12-22T11:15:19;91138.13;;;8.00;100.00
7660;BME280;3872;47.902;8.162;2023-12-22T11:17:48;91138.56;;;7.79;100.00
7660;BME280;3872;47.902;8.162;2023-12-22T11:20:16;91149.91;;;7.61;100.00
7660;BME280;3872;47.902;8.162;2023-12-22T11:22:44;91138.66;;;7.61;100.00
7660;BME280;3872;47.902;8.162;2023-12-22T11:25:12;91137.72;;;7.57;100.00
7660;BME280;3872;47.902;8.162;2023-12-22T11:27:42;91130.03;;;7.74;100.00
7660;BME280;3872;47.902;8.162;2023-12-22T11:30:11;91125.50;;;8.02;100.00
7660;BME280;3872;47.902;8.162;2023-12-22T11:32:39;91122.19;;;7.74;100.00
7660;BME280;3872;47.902;8.162;2023-12-22T11:35:06;91131.91;;;7.60;100.00
7660;BME280;3872;47.902;8.162;2023-12-22T11:37:35;91120.50;;;8.14;100.00
7660;BME280;3872;47.902;8.162;2023-12-22T11:40:05;91126.34;;;7.61;100.00
7660;BME280;3872;47.902;8.162;2023-12-22T11:42:35;91116.28;;;7.91;100.00
7660;BME280;3872;47.902;8.162;2023-12-22T11:45:04;91108.53;;;8.21;100.00
7660;BME280;3872;47.902;8.162;2023-12-22T11:47:33;91089.59;;;8.47;100.00
7660;BME280;3872;47.902;8.162;2023-12-22T11:49:59;91113.84;;;8.08;100.00
7660;BME280;3872;47.902;8.162;2023-12-22T11:52:26;91098.22;;;8.03;100.00
7660;BME280;3872;47.902;8.162;2023-12-22T11:54:55;91101.66;;;7.26;100.00
7660;BME280;3872;47.902;8.162;2023-12-22T11:57:33;91093.00;;;7.89;100.00
7660;BME280;3872;47.902;8.162;2023-12-22T12:00:01;91092.25;;;7.25;100.00
7660;BME280;3872;47.902;8.162;2023-12-22T12:02:40;91102.91;;;7.56;100.00
7660;BME280;3872;47.902;8.162;2023-12-22T12:05:08;91090.22;;;7.50;100.00
7660;BME280;3872;47.902;8.162;2023-12-22T12:07:42;91092.81;;;7.99;100.00
7660;BME280;3872;47.902;8.162;2023-12-22T12:10:11;91092.63;;;7.96;100.00
7660;BME280;3872;47.902;8.162;2023-12-22T12:12:37;91073.63;;;8.12;100.00
7660;BME280;3872;47.902;8.162;2023-12-22T12:15:09;91082.56;;;8.11;100.00
7660;BME280;3872;47.902;8.162;2023-12-22T12:17:41;91077.13;;;7.85;100.00
7660;BME280;3872;47.902;8.162;2023-12-22T12:20:09;91066.63;;;8.44;100.00
7660;BME280;3872;47.902;8.162;2023-12-22T12:22:36;91055.38;;;8.43;100.00
7660;BME280;3872;47.902;8.162;2023-12-22T12:25:08;91054.50;;;8.87;100.00
7660;BME280;3872;47.902;8.162;2023-12-22T12:27:36;91060.53;;;8.12;100.00
7660;BME280;3872;47.902;8.162;2023-12-22T12:30:09;91059.84;;;7.84;100.00
7660;BME280;3872;47.902;8.162;2023-12-22T12:32:37;91057.69;;;8.45;100.00
7660;BME280;3872;47.902;8.162;2023-12-22T12:35:05;91051.47;;;8.41;100.00
7660;BME280;3872;47.902;8.162;2023-12-22T12:37:32;91050.13;;;8.43;100.00
7660;BME280;3872;47.902;8.162;2023-12-22T12:39:59;91058.25;;;8.19;100.00
7660;BME280;3872;47.902;8.162;2023-12-22T12:42:30;91051.72;;;7.86;100.00
7660;BME280;3872;47.902;8.162;2023-12-22T12:44:57;91063.84;;;8.04;100.00
7660;BME280;3872;47.902;8.162;2023-12-22T12:47:23;91063.78;;;8.62;100.00
7660;BME280;3872;47.902;8.162;2023-12-22T12:49:56;91074.34;;;8.26;100.00
7660;BME280;3872;47.902;8.162;2023-12-22T12:52:25;91086.22;;;8.46;100.00
7660;BME280;3872;47.902;8.162;2023-12-22T12:54:52;91064.44;;;8.37;100.00
7660;BME280;3872;47.902;8.162;2023-12-22T12:57:19;91064.66;;;8.80;100.00
7660;BME280;3872;47.902;8.162;2023-12-22T12:59:46;91055.00;;;8.36;100.00
7660;BME280;3872;47.902;8.162;2023-12-22T13:02:13;91046.34;;;8.97;100.00
7660;BME280;3872;47.902;8.162;2023-12-22T13:04:40;91049.00;;;8.67;100.00
7660;BME280;3872;47.902;8.162;2023-12-22T13:07:08;91052.53;;;8.62;100.00
7660;BME280;3872;47.902;8.162;2023-12-22T13:09:36;91056.84;;;8.97;100.00
7660;BME280;3872;47.902;8.162;2023-12-22T13:12:04;91044.31;;;8.10;100.00
7660;BME280;3872;47.902;8.162;2023-12-22T13:14:31;91041.34;;;8.79;100.00
7660;BME280;3872;47.902;8.162;2023-12-22T13:16:58;91051.06;;;8.78;100.00
7660;BME280;3872;47.902;8.162;2023-12-22T13:19:25;91043.63;;;9.11;100.00
7660;BME280;3872;47.902;8.162;2023-12-22T13:21:52;91062.97;;;8.84;100.00
7660;BME280;3872;47.902;8.162;2023-12-22T13:24:19;91069.59;;;8.51;100.00